sensor_id;sensor_type;location;lat;lon;timestamp;pressure;altitude;pressure_sealevel;temperature;humidity
71857;BME280;63344;46.980;28.882;2023-10-31T00:02:13;100716.34;;;12.24;73.67
71857;BME280;63344;46.980;28.882;2023-10-31T00:04:40;100720.97;;;12.20;74.06
71857;BME280;63344;46.980;28.882;2023-10-31T00:07:08;100720.34;;;12.13;74.29
71857;BME280;63344;46.980;28.882;2023-10-31T00:09:37;100723.16;;;12.10;74.54
71857;BME280;63344;46.980;28.882;2023-10-31T00:12:07;100705.66;;;12.05;74.37
71857;BME280;63344;46.980;28.882;2023-10-31T00:14:34;100709.09;;;12.07;74.62
71857;BME280;63344;46.980;28.882;2023-10-31T00:17:02;100712.56;;;12.09;74.85
71857;BME280;63344;46.980;28.882;2023-10-31T00:19:30;100718.47;;;12.15;74.80
71857;BME280;63344;46.980;28.882;2023-10-31T00:21:58;100699.09;;;12.12;74.57
71857;BME280;63344;46.980;28.882;2023-10-31T00:24:26;100704.31;;;12.15;74.38
71857;BME280;63344;46.980;28.882;2023-10-31T00:26:54;100708.94;;;12.10;74.66
71857;BME280;63344;46.980;28.882;2023-10-31T00:29:21;100710.81;;;12.08;74.42
71857;BME280;63344;46.980;28.882;2023-10-31T00:31:49;100706.56;;;12.04;74.40
71857;BME280;63344;46.980;28.882;2023-10-31T00:34:17;100716.88;;;12.11;74.30
71857;BME280;63344;46.980;28.882;2023-10-31T00:36:45;100703.72;;;12.08;74.30
71857;BME280;63344;46.980;28.882;2023-10-31T00:39:13;100713.09;;;12.17;74.32
71857;BME280;63344;46.980;28.882;2023-10-31T00:41:45;100707.03;;;12.13;73.61
71857;BME280;63344;46.980;28.882;2023-10-31T00:44:14;100714.69;;;12.21;73.42
71857;BME280;63344;46.980;28.882;2023-10-31T00:46:44;100719.16;;;12.21;73.54
71857;BME280;63344;46.980;28.882;2023-10-31T00:49:12;100703.56;;;12.11;73.18
71857;BME280;63344;46.980;28.882;2023-10-31T00:51:40;100716.88;;;12.11;73.23
71857;BME280;63344;46.980;28.882;2023-10-31T00:54:07;100719.88;;;12.04;73.45
71857;BME280;63344;46.980;28.882;2023-10-31T00:56:35;100715.88;;;11.93;73.33
71857;BME280;63344;46.980;28.882;2023-10-31T00:59:04;100710.94;;;11.84;74.11
71857;BME280;63344;46.980;28.882;2023-10-31T01:01:32;100708.66;;;11.75;74.19
71857;BME280;63344;46.980;28.882;2023-10-31T01:04:01;100708.91;;;11.69;74.16
71857;BME280;63344;46.980;28.882;2023-10-31T01:06:28;100684.69;;;11.54;74.22
71857;BME280;63344;46.980;28.882;2023-10-31T01:08:56;100696.13;;;11.56;75.30
71857;BME280;63344;46.980;28.882;2023-10-31T01:11:24;100697.91;;;11.56;75.47
71857;BME280;63344;46.980;28.882;2023-10-31T01:13:51;100687.63;;;11.48;75.42
71857;BME280;63344;46.980;28.882;2023-10-31T01:16:20;100694.44;;;11.54;76.17
71857;BME280;63344;46.980;28.882;2023-10-31T01:18:48;100691.72;;;11.55;75.96
71857;BME280;63344;46.980;28.882;2023-10-31T01:21:15;100702.06;;;11.63;75.78
71857;BME280;63344;46.980;28.882;2023-10-31T01:23:43;100700.25;;;11.64;75.67
71857;BME280;63344;46.980;28.882;2023-10-31T01:26:10;100691.53;;;11.60;75.92
71857;BME280;63344;46.980;28.882;2023-10-31T01:28:38;100700.56;;;11.56;75.75
71857;BME280;63344;46.980;28.882;2023-10-31T01:31:06;100700.13;;;11.46;75.77
71857;BME280;63344;46.980;28.882;2023-10-31T01:33:35;100697.81;;;11.37;75.91
71857;BME280;63344;46.980;28.882;2023-10-31T01:36:07;100695.72;;;11.23;76.10
71857;BME280;63344;46.980;28.882;2023-10-31T01:38:34;100696.97;;;11.14;76.05
71857;BME280;63344;46.980;28.882;2023-10-31T01:41:02;100685.63;;;11.09;76.41
71857;BME280;63344;46.980;28.882;2023-10-31T01:43:35;100692.75;;;11.09;76.84
71857;BME280;63344;46.980;28.882;2023-10-31T01:46:04;100681.47;;;11.02;76.82
71857;BME280;63344;46.980;28.882;2023-10-31T01:48:32;100682.38;;;11.03;76.57
71857;BME280;63344;46.980;28.882;2023-10-31T01:51:02;100679.22;;;10.93;77.32
71857;BME280;63344;46.980;28.882;2023-10-31T01:53:34;100679.50;;;10.85;77.71
71857;BME280;63344;46.980;28.882;2023-10-31T01:56:03;100665.75;;;10.74;77.60
71857;BME280;63344;46.980;28.882;2023-10-31T01:58:37;100681.53;;;10.79;77.57
71857;BME280;63344;46.980;28.882;2023-10-31T02:01:05;100682.34;;;10.81;77.00
71857;BME280;63344;46.980;28.882;2023-10-31T02:03:34;100668.66;;;10.68;77.32
71857;BME280;63344;46.980;28.882;2023-10-31T02:06:02;100671.31;;;10.68;77.32
71857;BME280;63344;46.980;28.882;2023-10-31T02:08:30;100681.19;;;10.64;77.45
71857;BME280;63344;46.980;28.882;2023-10-31T02:10:57;100669.84;;;10.61;77.08
71857;BME280;63344;46.980;28.882;2023-10-31T02:13:25;100669.38;;;10.49;77.54
71857;BME280;63344;46.980;28.882;2023-10-31T02:15:54;100674.63;;;10.51;77.33
71857;BME280;63344;46.980;28.882;2023-10-31T02:18:22;100665.94;;;10.46;77.74
71857;BME280;63344;46.980;28.882;2023-10-31T02:20:52;100672.88;;;10.50;77.50
71857;BME280;63344;46.980;28.882;2023-10-31T02:23:20;100673.00;;;10.47;77.49
71857;BME280;63344;46.980;28.882;2023-10-31T02:25:47;100670.41;;;10.45;77.39
71857;BME280;63344;46.980;28.882;2023-10-31T02:28:18;100668.03;;;10.38;77.57
71857;BME280;63344;46.980;28.882;2023-10-31T02:30:48;100660.34;;;10.30;77.29
71857;BME280;63344;46.980;28.882;2023-10-31T02:33:16;100673.38;;;10.36;77.92
71857;BME280;63344;46.980;28.882;2023-10-31T02:35:45;100674.53;;;10.29;77.95
71857;BME280;63344;46.980;28.882;2023-10-31T02:38:13;100669.38;;;10.24;78.31
71857;BME280;63344;46.980;28.882;2023-10-31T02:40:41;100672.78;;;10.28;78.37
71857;BME280;63344;46.980;28.882;2023-10-31T02:43:08;100677.28;;;10.26;78.44
71857;BME280;63344;46.980;28.882;2023-10-31T02:45:35;100671.16;;;10.24;78.20
71857;BME280;63344;46.980;28.882;2023-10-31T02:48:03;100662.66;;;10.14;78.11
71857;BME280;63344;46.980;28.882;2023-10-31T02:50:30;100668.03;;;10.12;78.69
71857;BME280;63344;46.980;28.882;2023-10-31T02:52:58;100660.25;;;10.08;78.92
71857;BME280;63344;46.980;28.882;2023-10-31T02:55:25;100668.91;;;10.13;78.78
71857;BME280;63344;46.980;28.882;2023-10-31T02:57:53;100661.75;;;10.15;78.95
71857;BME280;63344;46.980;28.882;2023-10-31T03:00:20;100662.72;;;10.12;79.03
71857;BME280;63344;46.980;28.882;2023-10-31T03:02:47;100653.91;;;10.12;78.48
71857;BME280;63344;46.980;28.882;2023-10-31T03:05:15;100667.75;;;10.20;78.70
71857;BME280;63344;46.980;28.882;2023-10-31T03:07:43;100672.03;;;10.24;78.99
71857;BME280;63344;46.980;28.882;2023-10-31T03:10:12;100663.97;;;10.27;79.50
71857;BME280;63344;46.980;28.882;2023-10-31T03:12:43;100669.13;;;10.32;78.87
71857;BME280;63344;46.980;28.882;2023-10-31T03:15:16;100675.38;;;10.31;79.20
71857;BME280;63344;46.980;28.882;2023-10-31T03:17:44;100659.78;;;10.20;78.87
71857;BME280;63344;46.980;28.882;2023-10-31T03:20:11;100675.47;;;10.26;78.67
71857;BME280;63344;46.980;28.882;2023-10-31T03:22:39;100673.81;;;10.24;78.61
71857;BME280;63344;46.980;28.882;2023-10-31T03:25:08;100679.25;;;10.21;78.08
71857;BME280;63344;46.980;28.882;2023-10-31T03:27:51;100682.00;;;10.17;78.64
71857;BME280;63344;46.980;28.882;2023-10-31T03:30:20;100677.00;;;10.08;78.94
71857;BME280;63344;46.980;28.882;2023-10-31T03:32:49;100669.19;;;10.05;78.91
71857;BME280;63344;46.980;28.882;2023-10-31T03:35:17;100677.16;;;10.05;79.10
71857;BME280;63344;46.980;28.882;2023-10-31T03:37:46;100679.84;;;10.04;79.04
71857;BME280;63344;46.980;28.882;2023-10-31T03:40:14;100672.06;;;9.99;79.08
71857;BME280;63344;46.980;28.882;2023-10-31T03:42:44;100666.09;;;9.92;79.47
71857;BME280;63344;46.980;28.882;2023-10-31T03:45:11;100655.47;;;9.92;79.42
71857;BME280;63344;46.980;28.882;2023-10-31T03:47:39;100664.19;;;9.96;79.58
71857;BME280;63344;46.980;28.882;2023-10-31T03:50:09;100666.84;;;9.96;79.70
71857;BME280;63344;46.980;28.882;2023-10-31T03:52:37;100639.09;;;9.81;79.31
71857;BME280;63344;46.980;28.882;2023-10-31T03:55:07;100659.91;;;9.92;79.57
71857;BME280;63344;46.980;28.882;2023-10-31T03:57:38;100662.69;;;9.89;79.61
71857;BME280;63344;46.980;28.882;2023-10-31T04:00:08;100661.97;;;9.84;79.38
71857;BME280;63344;46.980;28.882;2023-10-31T04:02:35;100668.16;;;9.84;79.07
71857;BME280;63344;46.980;28.882;2023-10-31T04:05:06;100654.34;;;9.74;78.98
71857;BME280;63344;46.980;28.882;2023-10-31T04:07:35;100664.03;;;9.75;79.26
71857;BME280;63344;46.980;28.882;2023-10-31T04:10:03;100673.88;;;9.72;78.94
71857;BME280;63344;46.980;28.882;2023-10-31T04:12:31;100674.94;;;9.66;79.04
71857;BME280;63344;46.980;28.882;2023-10-31T04:15:03;100661.97;;;9.59;79.18
71857;BME280;63344;46.980;28.882;2023-10-31T04:17:30;100668.91;;;9.63;79.08
71857;BME280;63344;46.980;28.882;2023-10-31T04:19:59;100655.03;;;9.54;79.06
71857;BME280;63344;46.980;28.882;2023-10-31T04:22:30;100665.53;;;9.57;79.43
71857;BME280;63344;46.980;28.882;2023-10-31T04:25:00;100670.06;;;9.54;79.47
71857;BME280;63344;46.980;28.882;2023-10-31T04:27:27;100651.84;;;9.45;79.54
71857;BME280;63344;46.980;28.882;2023-10-31T04:29:56;100669.31;;;9.50;79.57
71857;BME280;63344;46.980;28.882;2023-10-31T04:32:24;100666.72;;;9.49;79.62
71857;BME280;63344;46.980;28.882;2023-10-31T04:34:53;100669.50;;;9.44;79.66
71857;BME280;63344;46.980;28.882;2023-10-31T04:37:24;100650.38;;;9.34;79.80
71857;BME280;63344;46.980;28.882;2023-10-31T04:39:53;100652.38;;;9.28;79.48
71857;BME280;63344;46.980;28.882;2023-10-31T04:42:32;100665.47;;;9.32;79.98
71857;BME280;63344;46.980;28.882;2023-10-31T04:45:08;100655.03;;;9.28;80.07
71857;BME280;63344;46.980;28.882;2023-10-31T04:47:36;100661.94;;;9.33;80.05
71857;BME280;63344;46.980;28.882;2023-10-31T04:50:08;100653.16;;;9.31;80.24
71857;BME280;63344;46.980;28.882;2023-10-31T04:52:36;100667.78;;;9.43;79.83
71857;BME280;63344;46.980;28.882;2023-10-31T04:55:08;100658.09;;;9.42;79.70
71857;BME280;63344;46.980;28.882;2023-10-31T04:57:45;100671.13;;;9.48;79.65
71857;BME280;63344;46.980;28.882;2023-10-31T05:00:21;100672.94;;;9.48;79.34
71857;BME280;63344;46.980;28.882;2023-10-31T05:03:15;100668.66;;;9.44;79.40
71857;BME280;63344;46.980;28.882;2023-10-31T05:06:11;100668.78;;;9.41;79.22
71857;BME280;63344;46.980;28.882;2023-10-31T05:08:55;100673.31;;;9.37;79.17
71857;BME280;63344;46.980;28.882;2023-10-31T05:11:32;100670.72;;;9.34;79.00
71857;BME280;63344;46.980;28.882;2023-10-31T05:14:08;100671.47;;;9.39;79.18
71857;BME280;63344;46.980;28.882;2023-10-31T05:16:40;100676.72;;;9.41;79.36
71857;BME280;63344;46.980;28.882;2023-10-31T05:19:15;100668.78;;;9.41;78.95
71857;BME280;63344;46.980;28.882;2023-10-31T05:22:04;100671.22;;;9.47;78.94
71857;BME280;63344;46.980;28.882;2023-10-31T05:24:57;100671.22;;;9.47;78.68
71857;BME280;63344;46.980;28.882;2023-10-31T05:35:08;100678.72;;;9.61;78.67
71857;BME280;63344;46.980;28.882;2023-10-31T05:38:03;100685.56;;;9.66;78.54
71857;BME280;63344;46.980;28.882;2023-10-31T05:40:48;100666.91;;;9.69;78.40
71857;BME280;63344;46.980;28.882;2023-10-31T05:43:39;100674.34;;;9.85;77.97
71857;BME280;63344;46.980;28.882;2023-10-31T05:46:45;100667.78;;;9.95;77.65
71857;BME280;63344;46.980;28.882;2023-10-31T05:49:45;100677.56;;;10.18;77.74
71857;BME280;63344;46.980;28.882;2023-10-31T05:53:10;100661.81;;;10.39;77.03
71857;BME280;63344;46.980;28.882;2023-10-31T05:56:08;100669.31;;;10.51;76.93
71857;BME280;63344;46.980;28.882;2023-10-31T06:15:06;100671.81;;;11.44;72.65
71857;BME280;63344;46.980;28.882;2023-10-31T06:18:32;100677.38;;;11.60;72.41
71857;BME280;63344;46.980;28.882;2023-10-31T06:21:53;100677.72;;;11.72;72.42
71857;BME280;63344;46.980;28.882;2023-10-31T06:25:17;100669.16;;;11.86;72.34
71857;BME280;63344;46.980;28.882;2023-10-31T06:28:24;100672.22;;;11.98;71.98
71857;BME280;63344;46.980;28.882;2023-10-31T06:31:29;100671.69;;;12.10;71.93
71857;BME280;63344;46.980;28.882;2023-10-31T06:38:14;100671.13;;;12.43;71.14
71857;BME280;63344;46.980;28.882;2023-10-31T06:50:01;100663.53;;;13.09;69.53
71857;BME280;63344;46.980;28.882;2023-10-31T06:53:28;100674.13;;;13.47;68.13
71857;BME280;63344;46.980;28.882;2023-10-31T07:08:28;100648.03;;;14.87;62.60
71857;BME280;63344;46.980;28.882;2023-10-31T07:43:45;100632.84;;;16.95;55.01
71857;BME280;63344;46.980;28.882;2023-10-31T07:46:57;100630.97;;;17.10;54.97
71857;BME280;63344;46.980;28.882;2023-10-31T07:49:58;100623.72;;;17.25;54.77
71857;BME280;63344;46.980;28.882;2023-10-31T07:52:58;100615.31;;;17.44;53.26
71857;BME280;63344;46.980;28.882;2023-10-31T07:56:03;100627.38;;;17.64;53.62
71857;BME280;63344;46.980;28.882;2023-10-31T07:58:59;100624.69;;;17.77;53.38
71857;BME280;63344;46.980;28.882;2023-10-31T08:02:02;100617.31;;;17.93;52.80
71857;BME280;63344;46.980;28.882;2023-10-31T08:04:50;100619.28;;;18.04;52.24
71857;BME280;63344;46.980;28.882;2023-10-31T08:07:37;100615.91;;;18.13;52.49
71857;BME280;63344;46.980;28.882;2023-10-31T08:10:16;100610.22;;;18.30;51.74
71857;BME280;63344;46.980;28.882;2023-10-31T08:13:15;100614.69;;;18.43;51.01
71857;BME280;63344;46.980;28.882;2023-10-31T08:16:31;100612.84;;;18.56;50.53
71857;BME280;63344;46.980;28.882;2023-10-31T08:19:28;100594.72;;;18.71;50.12
71857;BME280;63344;46.980;28.882;2023-10-31T08:22:30;100599.25;;;18.83;49.61
71857;BME280;63344;46.980;28.882;2023-10-31T08:25:04;100595.75;;;18.94;49.75
71857;BME280;63344;46.980;28.882;2023-10-31T08:28:11;100592.69;;;19.12;49.11
71857;BME280;63344;46.980;28.882;2023-10-31T08:31:00;100580.16;;;19.10;48.88
71857;BME280;63344;46.980;28.882;2023-10-31T08:34:06;100583.81;;;19.34;49.07
71857;BME280;63344;46.980;28.882;2023-10-31T08:37:51;100578.22;;;19.48;48.07
71857;BME280;63344;46.980;28.882;2023-10-31T08:40:48;100562.97;;;19.60;48.58
71857;BME280;63344;46.980;28.882;2023-10-31T08:43:21;100557.63;;;19.71;48.25
71857;BME280;63344;46.980;28.882;2023-10-31T08:46:12;100559.47;;;19.82;48.16
71857;BME280;63344;46.980;28.882;2023-10-31T08:49:14;100544.16;;;19.94;47.10
71857;BME280;63344;46.980;28.882;2023-10-31T08:51:49;100548.34;;;19.98;46.71
71857;BME280;63344;46.980;28.882;2023-10-31T08:55:09;100533.38;;;20.16;46.65
71857;BME280;63344;46.980;28.882;2023-10-31T08:57:45;100538.94;;;20.58;46.71
71857;BME280;63344;46.980;28.882;2023-10-31T09:00:47;100529.38;;;22.24;44.70
71857;BME280;63344;46.980;28.882;2023-10-31T09:03:49;100525.97;;;24.25;39.43
71857;BME280;63344;46.980;28.882;2023-10-31T09:07:06;100519.09;;;26.00;37.52
71857;BME280;63344;46.980;28.882;2023-10-31T09:10:12;100499.84;;;27.36;33.45
71857;BME280;63344;46.980;28.882;2023-10-31T09:13:27;100492.81;;;28.14;31.75
71857;BME280;63344;46.980;28.882;2023-10-31T09:16:25;100496.47;;;29.15;31.30
71857;BME280;63344;46.980;28.882;2023-10-31T09:19:58;100480.16;;;30.19;29.17
71857;BME280;63344;46.980;28.882;2023-10-31T09:39:05;100462.59;;;29.99;31.24
71857;BME280;63344;46.980;28.882;2023-10-31T09:58:35;100424.16;;;26.65;32.90
71857;BME280;63344;46.980;28.882;2023-10-31T10:01:56;100407.75;;;25.89;34.28
71857;BME280;63344;46.980;28.882;2023-10-31T10:05:02;100413.69;;;25.50;34.29
71857;BME280;63344;46.980;28.882;2023-10-31T10:07:48;100393.34;;;25.28;34.96
71857;BME280;63344;46.980;28.882;2023-10-31T10:14:59;100383.81;;;25.06;34.61
71857;BME280;63344;46.980;28.882;2023-10-31T10:18:30;100381.47;;;24.85;34.86
71857;BME280;63344;46.980;28.882;2023-10-31T10:28:30;100367.09;;;24.67;35.02
71857;BME280;63344;46.980;28.882;2023-10-31T10:31:45;100361.03;;;24.55;35.29
71857;BME280;63344;46.980;28.882;2023-10-31T10:34:41;100351.84;;;24.38;35.52
71857;BME280;63344;46.980;28.882;2023-10-31T10:45:03;100347.38;;;24.47;36.21
71857;BME280;63344;46.980;28.882;2023-10-31T10:48:00;100326.28;;;24.58;36.68
71857;BME280;63344;46.980;28.882;2023-10-31T10:55:03;100331.00;;;25.00;36.17
71857;BME280;63344;46.980;28.882;2023-10-31T11:05:36;100322.53;;;25.12;36.22
71857;BME280;63344;46.980;28.882;2023-10-31T11:08:31;100317.06;;;25.30;36.31
71857;BME280;63344;46.980;28.882;2023-10-31T11:32:14;100309.03;;;24.94;37.15
71857;BME280;63344;46.980;28.882;2023-10-31T11:35:06;100290.06;;;24.76;37.88
71857;BME280;63344;46.980;28.882;2023-10-31T11:39:20;100269.31;;;24.67;37.99
71857;BME280;63344;46.980;28.882;2023-10-31T11:42:21;100275.00;;;24.55;37.99
71857;BME280;63344;46.980;28.882;2023-10-31T11:48:53;100280.31;;;24.65;38.31
71857;BME280;63344;46.980;28.882;2023-10-31T11:51:52;100267.94;;;24.62;38.60
71857;BME280;63344;46.980;28.882;2023-10-31T11:54:44;100264.50;;;24.60;38.86
71857;BME280;63344;46.980;28.882;2023-10-31T11:57:29;100265.66;;;24.58;38.68
71857;BME280;63344;46.980;28.882;2023-10-31T12:04:23;100260.94;;;24.42;39.29
71857;BME280;63344;46.980;28.882;2023-10-31T12:10:36;100243.50;;;24.44;38.97
71857;BME280;63344;46.980;28.882;2023-10-31T12:13:42;100228.00;;;24.37;38.92
71857;BME280;63344;46.980;28.882;2023-10-31T12:16:31;100245.81;;;24.39;38.94
71857;BME280;63344;46.980;28.882;2023-10-31T12:19:17;100238.69;;;24.38;39.10
71857;BME280;63344;46.980;28.882;2023-10-31T12:26:04;100233.78;;;24.42;38.55
71857;BME280;63344;46.980;28.882;2023-10-31T12:29:30;100236.84;;;24.39;39.00
71857;BME280;63344;46.980;28.882;2023-10-31T12:32:36;100225.59;;;24.34;39.32
71857;BME280;63344;46.980;28.882;2023-10-31T12:35:26;100216.22;;;24.28;39.43
71857;BME280;63344;46.980;28.882;2023-10-31T12:50:16;100195.34;;;24.02;40.22
71857;BME280;63344;46.980;28.882;2023-10-31T12:53:52;100182.38;;;23.96;40.29
71857;BME280;63344;46.980;28.882;2023-10-31T12:56:50;100188.00;;;23.95;40.65
71857;BME280;63344;46.980;28.882;2023-10-31T12:59:48;100176.06;;;23.88;40.67
71857;BME280;63344;46.980;28.882;2023-10-31T13:03:08;100182.41;;;23.78;40.46
71857;BME280;63344;46.980;28.882;2023-10-31T13:05:59;100187.03;;;23.68;40.70
71857;BME280;63344;46.980;28.882;2023-10-31T13:16:17;100176.88;;;23.52;40.70
71857;BME280;63344;46.980;28.882;2023-10-31T13:19:30;100167.53;;;23.46;40.83
71857;BME280;63344;46.980;28.882;2023-10-31T13:22:47;100162.41;;;23.43;41.07
71857;BME280;63344;46.980;28.882;2023-10-31T13:25:45;100165.25;;;23.42;41.21
71857;BME280;63344;46.980;28.882;2023-10-31T13:42:36;100159.75;;;23.16;41.12
71857;BME280;63344;46.980;28.882;2023-10-31T13:49:32;100158.94;;;23.05;41.27
71857;BME280;63344;46.980;28.882;2023-10-31T14:22:54;100148.75;;;22.15;45.07
71857;BME280;63344;46.980;28.882;2023-10-31T14:29:38;100165.69;;;22.07;46.19
71857;BME280;63344;46.980;28.882;2023-10-31T14:32:44;100156.88;;;21.95;46.26
71857;BME280;63344;46.980;28.882;2023-10-31T14:39:37;100161.16;;;21.68;46.94
71857;BME280;63344;46.980;28.882;2023-10-31T14:43:00;100173.53;;;21.52;47.93
71857;BME280;63344;46.980;28.882;2023-10-31T14:46:31;100171.50;;;21.34;50.00
71857;BME280;63344;46.980;28.882;2023-10-31T14:49:29;100160.13;;;21.21;51.64
71857;BME280;63344;46.980;28.882;2023-10-31T14:56:00;100161.41;;;20.76;56.50
71857;BME280;63344;46.980;28.882;2023-10-31T15:12:05;100168.66;;;20.03;62.56
71857;BME280;63344;46.980;28.882;2023-10-31T15:23:43;100170.66;;;19.68;63.73
71857;BME280;63344;46.980;28.882;2023-10-31T15:26:47;100183.78;;;19.62;64.16
71857;BME280;63344;46.980;28.882;2023-10-31T15:29:41;100178.44;;;19.50;64.85
71857;BME280;63344;46.980;28.882;2023-10-31T15:47:30;100167.31;;;18.89;68.93
71857;BME280;63344;46.980;28.882;2023-10-31T16:06:59;100148.50;;;18.21;72.89
71857;BME280;63344;46.980;28.882;2023-10-31T16:12:51;100141.84;;;18.03;73.73
71857;BME280;63344;46.980;28.882;2023-10-31T16:16:11;100144.06;;;17.98;74.55
71857;BME280;63344;46.980;28.882;2023-10-31T16:38:08;100122.97;;;17.45;77.89
71857;BME280;63344;46.980;28.882;2023-10-31T16:40:51;100119.50;;;17.31;78.79
71857;BME280;63344;46.980;28.882;2023-10-31T17:00:05;100129.47;;;17.05;81.24
71857;BME280;63344;46.980;28.882;2023-10-31T17:03:04;100133.88;;;17.06;81.08
71857;BME280;63344;46.980;28.882;2023-10-31T17:06:20;100123.06;;;16.95;81.91
71857;BME280;63344;46.980;28.882;2023-10-31T17:10:07;100125.25;;;16.90;81.60
71857;BME280;63344;46.980;28.882;2023-10-31T17:16:58;100126.13;;;16.78;81.88
71857;BME280;63344;46.980;28.882;2023-10-31T17:19:47;100125.25;;;16.77;82.86
71857;BME280;63344;46.980;28.882;2023-10-31T17:39:42;100123.50;;;16.39;86.20
71857;BME280;63344;46.980;28.882;2023-10-31T17:51:31;100124.16;;;16.17;87.78
71857;BME280;63344;46.980;28.882;2023-10-31T17:54:12;100125.44;;;16.11;87.95
71857;BME280;63344;46.980;28.882;2023-10-31T17:56:45;100128.69;;;16.04;89.22
71857;BME280;63344;46.980;28.882;2023-10-31T17:59:29;100136.81;;;16.02;88.42
71857;BME280;63344;46.980;28.882;2023-10-31T18:02:16;100128.38;;;15.96;89.08
71857;BME280;63344;46.980;28.882;2023-10-31T18:05:39;100128.00;;;15.87;89.77
71857;BME280;63344;46.980;28.882;2023-10-31T18:09:09;100119.03;;;15.76;89.95
71857;BME280;63344;46.980;28.882;2023-10-31T18:12:16;100134.41;;;15.72;90.56
71857;BME280;63344;46.980;28.882;2023-10-31T18:14:53;100124.97;;;15.66;91.23
71857;BME280;63344;46.980;28.882;2023-10-31T18:17:36;100125.47;;;15.59;91.58
71857;BME280;63344;46.980;28.882;2023-10-31T18:20:28;100121.50;;;15.51;91.95
71857;BME280;63344;46.980;28.882;2023-10-31T18:23:32;100127.16;;;15.47;92.73
71857;BME280;63344;46.980;28.882;2023-10-31T18:26:53;100130.16;;;15.42;92.62
71857;BME280;63344;46.980;28.882;2023-10-31T18:29:41;100122.41;;;15.38;92.61
71857;BME280;63344;46.980;28.882;2023-10-31T18:32:43;100103.56;;;15.26;93.42
71857;BME280;63344;46.980;28.882;2023-10-31T18:35:43;100116.28;;;15.23;94.13
71857;BME280;63344;46.980;28.882;2023-10-31T18:38:58;100109.53;;;15.17;93.89
71857;BME280;63344;46.980;28.882;2023-10-31T18:46:13;100113.75;;;15.07;94.41
71857;BME280;63344;46.980;28.882;2023-10-31T18:49:35;100117.03;;;14.98;94.39
71857;BME280;63344;46.980;28.882;2023-10-31T18:52:32;100126.69;;;15.00;94.09
71857;BME280;63344;46.980;28.882;2023-10-31T18:59:13;100129.09;;;14.90;94.08
71857;BME280;63344;46.980;28.882;2023-10-31T19:01:52;100134.44;;;14.90;94.49
71857;BME280;63344;46.980;28.882;2023-10-31T19:04:38;100136.16;;;14.91;94.29
71857;BME280;63344;46.980;28.882;2023-10-31T19:07:44;100133.88;;;14.85;93.76
71857;BME280;63344;46.980;28.882;2023-10-31T19:10:22;100128.75;;;14.82;94.10
71857;BME280;63344;46.980;28.882;2023-10-31T19:13:01;100134.94;;;14.83;94.12
71857;BME280;63344;46.980;28.882;2023-10-31T19:15:41;100123.03;;;14.74;94.16
71857;BME280;63344;46.980;28.882;2023-10-31T19:18:20;100134.50;;;14.76;94.32
71857;BME280;63344;46.980;28.882;2023-10-31T19:21:00;100130.38;;;14.70;93.69
71857;BME280;63344;46.980;28.882;2023-10-31T19:23:51;100131.91;;;14.74;93.42
71857;BME280;63344;46.980;28.882;2023-10-31T19:26:27;100130.28;;;14.72;93.04
71857;BME280;63344;46.980;28.882;2023-10-31T19:29:31;100126.66;;;14.73;93.06
71857;BME280;63344;46.980;28.882;2023-10-31T19:32:29;100138.94;;;14.76;93.33
71857;BME280;63344;46.980;28.882;2023-10-31T19:35:27;100120.28;;;14.61;93.37
71857;BME280;63344;46.980;28.882;2023-10-31T19:38:52;100132.31;;;14.68;93.52
71857;BME280;63344;46.980;28.882;2023-10-31T19:41:39;100132.59;;;14.64;93.74
71857;BME280;63344;46.980;28.882;2023-10-31T19:44:45;100132.47;;;14.65;93.38
71857;BME280;63344;46.980;28.882;2023-10-31T19:47:44;100121.34;;;14.59;93.13
71857;BME280;63344;46.980;28.882;2023-10-31T19:50:57;100124.00;;;14.59;93.09
71857;BME280;63344;46.980;28.882;2023-10-31T19:53:34;100122.75;;;14.50;93.20
71857;BME280;63344;46.980;28.882;2023-10-31T19:56:53;100121.78;;;14.51;93.53
71857;BME280;63344;46.980;28.882;2023-10-31T20:00:26;100126.38;;;14.49;92.98
71857;BME280;63344;46.980;28.882;2023-10-31T20:03:21;100105.78;;;14.37;93.05
71857;BME280;63344;46.980;28.882;2023-10-31T20:06:30;100107.47;;;14.38;93.80
71857;BME280;63344;46.980;28.882;2023-10-31T20:22:23;100099.19;;;14.28;94.21
71857;BME280;63344;46.980;28.882;2023-10-31T20:25:37;100112.25;;;14.32;93.96
71857;BME280;63344;46.980;28.882;2023-10-31T20:28:15;100097.16;;;14.31;94.38
71857;BME280;63344;46.980;28.882;2023-10-31T20:31:00;100081.53;;;14.25;94.55
71857;BME280;63344;46.980;28.882;2023-10-31T20:33:33;100084.56;;;14.33;94.86
71857;BME280;63344;46.980;28.882;2023-10-31T20:36:08;100093.84;;;14.42;94.83
71857;BME280;63344;46.980;28.882;2023-10-31T20:38:52;100062.94;;;14.38;95.16
71857;BME280;63344;46.980;28.882;2023-10-31T20:41:20;100058.03;;;14.45;95.33
71857;BME280;63344;46.980;28.882;2023-10-31T20:44:04;100038.97;;;14.37;95.21
71857;BME280;63344;46.980;28.882;2023-10-31T20:46:34;100042.88;;;14.45;94.62
71857;BME280;63344;46.980;28.882;2023-10-31T20:49:28;100045.44;;;14.47;94.34
71857;BME280;63344;46.980;28.882;2023-10-31T20:52:02;100042.38;;;14.53;94.76
71857;BME280;63344;46.980;28.882;2023-10-31T20:55:14;100022.56;;;14.43;94.36
71857;BME280;63344;46.980;28.882;2023-10-31T20:58:01;100054.88;;;14.52;94.58
71857;BME280;63344;46.980;28.882;2023-10-31T21:00:38;100053.16;;;14.51;93.94
71857;BME280;63344;46.980;28.882;2023-10-31T21:03:26;100053.66;;;14.58;94.39